www.nordhorn-wetter.com
Wetterdaten: aktuell Donnerstag, 07.05.2026 18:31
Datum Zeit Temp. A. BodenT -5cm Temp +10cm Extra Temp Feuchte A. BlattFeuchte Bod.Feu -5cm Luftdruck Regen Wind Richtung Richtung Sonnenschein ET UV Solar Taupunkt Windböen Empfang
07.05.2026 18:31 13,9 °C 16,7 °C 12,8 °C 14,6 °C 67 % 0 lf 11 cb 1015,7 hPa 0,0 mm 8,7 km/h (2 Bft) O 81 ° 0 min 0,178 mm 3,4 UV-I 146 W/m² 7,9 °C 12,9 km/h (3 Bft) 100,00 %
07.05.2026 17:31 15,0 °C 16,7 °C 14,4 °C 15,1 °C 66 % 0 lf 11 cb 1015,3 hPa 0,0 mm 18,0 km/h (3 Bft) O 87 ° 21 min 0,153 mm 5,4 UV-I 289 W/m² 8,7 °C 24,1 km/h (4 Bft) 100,00 %
07.05.2026 16:31 14,8 °C 17,2 °C 15,6 °C 14,6 °C 65 % 0 lf 11 cb 1015,1 hPa 0,0 mm 5,5 km/h (2 Bft) O 92 ° 1 min 0,203 mm 1,9 UV-I 195 W/m² 8,3 °C 11,3 km/h (2 Bft) 86,96 %
07.05.2026 15:31 15,4 °C 16,1 °C 17,8 °C 14,0 °C 63 % 0 lf 12 cb 1015,0 hPa 0,0 mm 3,4 km/h (1 Bft) O-SO 105 ° 34 min 0,330 mm 2,2 UV-I 260 W/m² 8,4 °C 4,8 km/h (1 Bft) 96,30 %
07.05.2026 14:30 15,8 °C 15,0 °C 21,1 °C 12,9 °C 61 % 0 lf 13 cb 1014,9 hPa 0,0 mm 4,3 km/h (1 Bft) O-NO 65 ° 21 min 0,254 mm 10,1 UV-I 683 W/m² 8,3 °C 12,9 km/h (3 Bft) 95,65 %
07.05.2026 13:30 14,8 °C 13,9 °C 20,0 °C 12,3 °C 69 % 0 lf 14 cb 1015,0 hPa 0,0 mm 4,0 km/h (1 Bft) NO 51 ° 34 min 0,305 mm 1,9 UV-I 319 W/m² 9,2 °C 4,8 km/h (1 Bft) 95,83 %
07.05.2026 12:29 14,4 °C 12,2 °C 20,6 °C 11,2 °C 72 % 0 lf 14 cb 1015,0 hPa 0,0 mm 7,1 km/h (2 Bft) N 355 ° 46 min 0,228 mm 9,0 UV-I 544 W/m² 9,4 °C 12,9 km/h (3 Bft) 95,83 %
07.05.2026 11:29 12,6 °C 11,7 °C 15,0 °C 10,7 °C 75 % 0 lf 15 cb 1014,7 hPa 0,0 mm 3,0 km/h (1 Bft) NO 45 ° 7 min 0,153 mm 3,4 UV-I 374 W/m² 8,3 °C 4,8 km/h (1 Bft) 95,65 %
07.05.2026 10:28 11,5 °C 11,1 °C 12,8 °C 10,1 °C 80 % 0 lf 15 cb 1014,3 hPa 0,0 mm 4,2 km/h (1 Bft) N-NO 20 ° 0 min 0,127 mm 2,0 UV-I 204 W/m² 8,2 °C 8,0 km/h (2 Bft) 95,83 %
07.05.2026 09:28 11,4 °C 10,6 °C 11,1 °C 10,1 °C 81 % 0 lf 15 cb 1014,0 hPa 0,0 mm 3,0 km/h (1 Bft) N-NO 12 ° 0 min 0,076 mm 1,4 UV-I 201 W/m² 8,3 °C 11,3 km/h (2 Bft) 100,00 %
07.05.2026 08:24 8,9 °C 10,6 °C 7,2 °C 10,1 °C 87 % 0 lf 14 cb 1013,7 hPa 0,0 mm 2,4 km/h (1 Bft) N-NO 19 ° 0 min 0,000 mm 3,3 UV-I 124 W/m² 6,9 °C 4,8 km/h (1 Bft) 100,00 %
07.05.2026 07:24 5,9 °C 10,6 °C 5,0 °C 10,1 °C 94 % 15 lf 14 cb 1013,2 hPa 0,0 mm 0,0 km/h (0 Bft) N-NW 338 ° 0 min 0,000 mm 0,0 UV-I 0 W/m² 5,0 °C 0,0 km/h (0 Bft) 100,00 %
07.05.2026 06:24 4,5 °C 11,1 °C 3,9 °C 10,1 °C 95 % 13 lf 14 cb 1012,5 hPa 0,0 mm 0,0 km/h (0 Bft) N-NW 346 ° 0 min 0,000 mm 0,0 UV-I 0 W/m² 3,8 °C 0,0 km/h (0 Bft) 95,83 %
07.05.2026 05:19 4,7 °C 11,1 °C 4,4 °C 10,7 °C 94 % 9 lf 13 cb 1012,2 hPa 0,0 mm 0,0 km/h (0 Bft) N-NW 346 ° 0 min 0,000 mm 0,0 UV-I 0 W/m² 3,8 °C 0,0 km/h (0 Bft) 91,67 %
07.05.2026 04:19 5,4 °C 11,7 °C 5,0 °C 10,7 °C 93 % 3 lf 13 cb 1011,8 hPa 0,0 mm 0,0 km/h (0 Bft) N-NW 346 ° 0 min 0,000 mm 0,0 UV-I 0 W/m² 4,4 °C 0,0 km/h (0 Bft) 100,00 %
07.05.2026 03:19 6,5 °C 11,7 °C 6,7 °C 11,2 °C 91 % 0 lf 13 cb 1011,6 hPa 0,0 mm 3,8 km/h (1 Bft) N-NW 348 ° 0 min 0,000 mm 0,0 UV-I 0 W/m² 5,1 °C 6,4 km/h (2 Bft) 95,83 %
07.05.2026 02:19 7,3 °C 12,2 °C 7,2 °C 11,2 °C 90 % 0 lf 13 cb 1011,3 hPa 0,0 mm 3,4 km/h (1 Bft) NW 321 ° 0 min 0,000 mm 0,0 UV-I 0 W/m² 5,8 °C 8,0 km/h (2 Bft) 95,45 %
07.05.2026 01:19 8,0 °C 12,2 °C 7,8 °C 11,8 °C 88 % 0 lf 12 cb 1011,1 hPa 0,0 mm 2,1 km/h (1 Bft) N-NW 338 ° 0 min 0,000 mm 0,0 UV-I 0 W/m² 6,1 °C 4,8 km/h (1 Bft) 100,00 %
07.05.2026 00:19 9,1 °C 12,8 °C 8,9 °C 11,8 °C 86 % 0 lf 12 cb 1010,9 hPa 0,0 mm 2,3 km/h (1 Bft) N 355 ° 0 min 0,000 mm 0,0 UV-I 0 W/m² 6,9 °C 6,4 km/h (2 Bft) 95,83 %
07.05.2026 00:00 9,2 °C 12,8 °C 8,9 °C 11,8 °C 86 % 0 lf 12 cb 1010,9 hPa 0,0 mm 1,2 km/h (1 Bft) NW 307 ° 0 min 0,000 mm 0,0 UV-I 0 W/m² 7,0 °C 3,2 km/h (1 Bft) 86,96 %
_ Min-Zeit 06:12 10:17 06:57 11:24 15:09 18:31 18:31 00:31 - 07:29 - - - - - - 05:52 07:29 03:22
Minimum _ 4,4 °C 10,6 °C 3,9 °C 10,1 °C 57 % 0 lf 11 cb 1010,9 hPa - 0,0 km/h (0 Bft) - - - - - - 3,5 °C 0,0 km/h (0 Bft) 77,78 %
_ Max-Zeit 15:08 17:22 15:10 17:56 07:22 07:25 12:12 18:31 18:31 17:31 - - 14:52 15:02 13:15 12:22 12:13 17:34 18:31
Maximum _ 17,4 °C 17,2 °C 24,4 °C 15,1 °C 95 % 15 lf 15 cb 1015,7 hPa 0,0 mm 18,0 km/h
O (3 Bft)
- - 2 min 0,330 mm 11,5 UV-I 726 W/m² 10,0 °C 25,7 km/h
O (4 Bft)
100,00 %
Durchschnitt _ 10,5 °C 12,8 °C 11,6 °C 11,7 °C 80 % 2 lf 13 cb 1013,5 hPa #0,0 mm 4,7 km/h (1 Bft) N-NW - #2:46 h #2,007 mm 4,8 UV-I 327 W/m² 7,0 °C 8,1 km/h (2 Bft) 96,99 %
© 2006-2026 Nordhorn-Wetter.com